Time;durP1;ratioP1;P1;durP2;ratioP2;P2;SDS_P1;SDS_P2;PMS_P1;PMS_P2;Temp;Humidity;BMP_temperature;BMP_pressure;BME280_temperature;BME280_humidity;BME280_pressure;Samples;Min_cycle;Max_cycle;Signal;HPM_P1;HPM_P2
2022/04/13 00:01:38;;;;;;;;;80.00;68.00;25.20;99.90;;;;;;5036504;28;8854;-68
2022/04/13 00:04:04;;;;;;;;;86.80;75.20;25.30;99.90;;;;;;5019633;28;8741;-68
2022/04/13 00:06:31;;;;;;;;;85.40;75.20;25.20;99.90;;;;;;5052606;28;9278;-69
2022/04/13 00:08:58;;;;;;;;;84.20;72.80;25.20;99.90;;;;;;5056706;28;9146;-69
2022/04/13 00:11:25;;;;;;;;;79.00;71.20;25.20;99.90;;;;;;5056489;28;8848;-68
2022/04/13 00:13:51;;;;;;;;;91.60;82.00;25.30;99.90;;;;;;5057080;28;8801;-69
2022/04/13 00:16:20;;;;;;;;;80.80;73.40;25.40;99.90;;;;;;5057324;28;9364;-67
2022/04/13 00:18:50;;;;;;;;;84.40;75.40;25.40;99.90;;;;;;5057132;28;9380;-69
2022/04/13 00:21:16;;;;;;;;;88.80;76.80;25.60;99.90;;;;;;5024554;28;8760;-69
2022/04/13 00:23:43;;;;;;;;;79.80;72.80;25.60;99.90;;;;;;5019400;28;8757;-69
2022/04/13 00:26:10;;;;;;;;;86.40;77.40;25.60;99.90;;;;;;5036271;28;9975;-69
2022/04/13 00:28:36;;;;;;;;;84.40;78.40;25.60;99.90;;;;;;5018534;28;8875;-68
2022/04/13 00:31:03;;;;;;;;;90.80;81.80;25.50;99.90;;;;;;5022453;28;8721;-68
2022/04/13 00:33:30;;;;;;;;;86.80;83.00;25.50;99.90;;;;;;5022382;28;8823;-68
2022/04/13 00:35:57;;;;;;;;;92.20;83.20;25.40;99.90;;;;;;5034617;28;8782;-68
2022/04/13 00:38:23;;;;;;;;;87.80;79.80;25.60;99.90;;;;;;5041928;28;8758;-68
2022/04/13 00:40:50;;;;;;;;;101.60;89.40;25.60;99.90;;;;;;5060134;28;8812;-68
2022/04/13 00:43:17;;;;;;;;;90.40;82.00;25.70;99.90;;;;;;5060403;28;8767;-67
2022/04/13 00:45:48;;;;;;;;;101.20;89.40;25.70;99.90;;;;;;5042167;28;9516;-69
2022/04/13 00:48:31;;;;;;;;;97.60;86.60;25.70;99.90;;;;;;5042233;28;8853;-68
2022/04/13 00:50:58;;;;;;;;;113.40;98.80;25.80;99.90;;;;;;5030330;28;8741;-69
2022/04/13 00:53:25;;;;;;;;;107.60;93.80;25.90;99.90;;;;;;5021854;28;8757;-69
2022/04/13 00:55:57;;;;;;;;;102.80;93.80;26.00;99.90;;;;;;5034706;28;8873;-68
2022/04/13 00:58:29;;;;;;;;;105.60;99.00;25.90;99.90;;;;;;5050045;28;8759;-68
2022/04/13 01:00:56;;;;;;;;;102.20;93.00;26.00;99.90;;;;;;5022233;28;8840;-68
2022/04/13 01:03:24;;;;;;;;;104.00;95.00;26.00;99.90;;;;;;5039359;28;8749;-68
2022/04/13 01:05:52;;;;;;;;;103.60;96.60;26.10;99.90;;;;;;5066086;28;8815;-68
2022/04/13 01:08:19;;;;;;;;;106.60;98.20;26.20;99.90;;;;;;5041483;28;8742;-68
2022/04/13 01:10:47;;;;;;;;;114.00;104.00;26.20;99.90;;;;;;5059747;28;8780;-69
2022/04/13 01:13:15;;;;;;;;;106.00;93.40;26.30;99.90;;;;;;5059782;28;9367;-69
2022/04/13 01:15:41;;;;;;;;;101.00;89.60;26.40;99.90;;;;;;5058558;28;8747;-69
2022/04/13 01:18:08;;;;;;;;;95.00;87.00;26.40;99.90;;;;;;5059297;28;8881;-69
2022/04/13 01:20:37;;;;;;;;;106.20;93.60;26.40;99.90;;;;;;5032335;28;8783;-69
2022/04/13 01:23:04;;;;;;;;;107.60;94.80;26.50;99.90;;;;;;5022223;28;8773;-69
2022/04/13 01:25:31;;;;;;;;;110.00;99.60;26.50;99.90;;;;;;5021408;28;8765;-68
2022/04/13 01:27:57;;;;;;;;;112.60;98.60;26.60;99.90;;;;;;5005673;28;8884;-69
2022/04/13 01:30:25;;;;;;;;;109.00;97.60;26.60;99.90;;;;;;5038994;28;8764;-68
2022/04/13 01:32:52;;;;;;;;;111.40;101.40;26.70;99.90;;;;;;5021633;28;8764;-68
2022/04/13 01:35:19;;;;;;;;;97.00;85.80;26.60;99.90;;;;;;5028757;28;8775;-68
2022/04/13 01:37:45;;;;;;;;;103.20;95.00;26.70;99.90;;;;;;5060020;28;8739;-69
2022/04/13 01:40:12;;;;;;;;;97.00;86.60;26.70;99.90;;;;;;5060037;28;8766;-69
2022/04/13 01:42:39;;;;;;;;;94.00;81.00;26.80;99.90;;;;;;5058387;28;8798;-69
2022/04/13 01:45:06;;;;;;;;;101.60;88.80;26.90;99.90;;;;;;5059101;28;8858;-69
2022/04/13 01:47:33;;;;;;;;;98.00;89.00;26.80;99.90;;;;;;5074079;28;8765;-69
2022/04/13 01:50:02;;;;;;;;;93.60;89.60;26.90;99.90;;;;;;5054764;28;8753;-69
2022/04/13 01:52:29;;;;;;;;;101.40;89.00;26.90;99.90;;;;;;5038405;28;8842;-69
2022/04/13 01:54:55;;;;;;;;;80.60;76.60;27.00;99.90;;;;;;5039567;28;8733;-69
2022/04/13 01:57:23;;;;;;;;;91.20;79.20;27.10;99.90;;;;;;5038654;28;8806;-69
2022/04/13 01:59:50;;;;;;;;;94.60;85.60;27.20;99.90;;;;;;5038618;28;9608;-69
2022/04/13 02:02:16;;;;;;;;;100.40;91.20;27.30;99.90;;;;;;5004761;28;8761;-69
2022/04/13 02:04:43;;;;;;;;;100.20;88.20;27.20;99.90;;;;;;5040148;28;8741;-69
2022/04/13 02:07:10;;;;;;;;;107.80;98.40;27.30;99.90;;;;;;5058896;28;8845;-69
2022/04/13 02:09:36;;;;;;;;;99.80;93.00;27.20;99.90;;;;;;5058564;28;8809;-69
2022/04/13 02:12:03;;;;;;;;;90.00;82.00;27.30;99.90;;;;;;5058690;28;8789;-70
2022/04/13 02:14:30;;;;;;;;;92.60;87.40;27.30;99.90;;;;;;5058256;28;8767;-69
2022/04/13 02:17:00;;;;;;;;;100.40;89.80;27.40;99.90;;;;;;5040803;28;8786;-69
2022/04/13 02:19:26;;;;;;;;;101.80;91.20;27.40;99.90;;;;;;5058303;28;8719;-69
2022/04/13 02:21:53;;;;;;;;;95.80;86.60;27.40;99.90;;;;;;5039125;28;8722;-69
2022/04/13 02:24:20;;;;;;;;;99.20;90.80;27.40;99.90;;;;;;5038558;28;8757;-69
2022/04/13 02:26:46;;;;;;;;;103.40;93.00;27.50;99.90;;;;;;5038123;28;8866;-69
2022/04/13 02:29:14;;;;;;;;;97.40;91.80;27.60;99.90;;;;;;5053634;28;9078;-69
2022/04/13 02:31:41;;;;;;;;;104.40;91.80;27.70;99.90;;;;;;5037878;28;8771;-69
2022/04/13 02:34:08;;;;;;;;;99.60;91.40;27.70;99.90;;;;;;5038918;28;8733;-69
2022/04/13 02:36:34;;;;;;;;;103.00;96.60;27.80;99.90;;;;;;5054521;28;8733;-69
2022/04/13 02:39:01;;;;;;;;;104.60;93.60;27.80;99.90;;;;;;5057807;28;8774;-69
2022/04/13 02:41:28;;;;;;;;;101.20;91.20;27.80;99.90;;;;;;5039759;28;8759;-68
2022/04/13 02:43:54;;;;;;;;;107.80;93.00;27.90;99.90;;;;;;5057848;28;8747;-69
2022/04/13 02:46:21;;;;;;;;;107.40;93.80;27.90;99.90;;;;;;5057974;28;8759;-69
2022/04/13 02:48:48;;;;;;;;;91.00;82.00;27.90;99.90;;;;;;5057659;28;8934;-69
2022/04/13 02:51:17;;;;;;;;;88.80;85.60;28.00;99.90;;;;;;5043248;28;8729;-69
2022/04/13 02:53:44;;;;;;;;;96.60;87.20;28.10;99.90;;;;;;5037484;28;8753;-68
2022/04/13 02:56:11;;;;;;;;;95.60;85.60;28.10;99.90;;;;;;5020164;28;8880;-69
2022/04/13 02:58:37;;;;;;;;;89.80;83.80;28.10;99.90;;;;;;5020206;28;8760;-69
2022/04/13 03:01:06;;;;;;;;;100.20;91.20;28.30;99.90;;;;;;5037759;28;8733;-69
2022/04/13 03:03:33;;;;;;;;;96.60;89.60;28.30;99.90;;;;;;5037095;28;9388;-69
2022/04/13 03:06:00;;;;;;;;;99.20;86.20;28.30;99.90;;;;;;5049374;28;8727;-68
2022/04/13 03:08:27;;;;;;;;;79.80;74.80;28.30;99.90;;;;;;5057319;28;8738;-68
2022/04/13 03:10:54;;;;;;;;;94.40;88.40;28.40;99.90;;;;;;5039458;28;8719;-69
2022/04/13 03:13:21;;;;;;;;;100.40;89.00;28.40;99.90;;;;;;5057488;28;8723;-69
2022/04/13 03:15:47;;;;;;;;;99.20;90.00;28.50;99.90;;;;;;5057348;28;8807;-69
2022/04/13 03:18:14;;;;;;;;;98.80;86.60;28.50;99.90;;;;;;5057222;28;8755;-69
2022/04/13 03:20:41;;;;;;;;;96.60;87.60;28.70;99.90;;;;;;5047418;28;8761;-69
2022/04/13 03:23:07;;;;;;;;;98.40;88.60;28.70;99.90;;;;;;5037504;28;8761;-68
2022/04/13 03:25:34;;;;;;;;;96.80;91.40;28.70;99.90;;;;;;5037124;28;8749;-68
2022/04/13 03:28:01;;;;;;;;;109.80;98.40;28.70;99.90;;;;;;5037964;28;8764;-68
2022/04/13 03:30:28;;;;;;;;;94.40;86.80;28.70;99.90;;;;;;5037068;28;8788;-68
2022/04/13 03:32:54;;;;;;;;;104.60;94.20;28.70;99.90;;;;;;5037325;28;8757;-69
2022/04/13 03:35:22;;;;;;;;;99.20;89.20;28.80;99.90;;;;;;5043478;28;8759;-68
2022/04/13 03:37:49;;;;;;;;;94.60;83.00;28.80;99.90;;;;;;5039820;28;8755;-69
2022/04/13 03:40:15;;;;;;;;;96.60;87.80;28.80;99.90;;;;;;5057400;28;8739;-69
2022/04/13 03:42:42;;;;;;;;;85.60;80.20;28.90;99.90;;;;;;5057139;28;8767;-68
2022/04/13 03:45:13;;;;;;;;;97.40;88.00;29.00;99.90;;;;;;5056716;28;8779;-69
2022/04/13 03:47:41;;;;;;;;;100.80;90.40;29.10;99.90;;;;;;5056849;28;8762;-69
2022/04/13 03:50:08;;;;;;;;;97.80;91.20;29.00;99.90;;;;;;5051365;28;8784;-69
2022/04/13 03:52:35;;;;;;;;;100.00;92.40;29.00;99.90;;;;;;5036311;28;8733;-68
2022/04/13 03:55:04;;;;;;;;;91.80;86.60;29.20;99.90;;;;;;5036831;28;8757;-69
2022/04/13 03:57:31;;;;;;;;;95.40;88.60;29.20;99.90;;;;;;5019402;28;8776;-68
2022/04/13 03:59:58;;;;;;;;;93.20;80.80;29.20;99.90;;;;;;5019065;28;8774;-69
2022/04/13 04:02:24;;;;;;;;;100.60;90.20;29.20;99.90;;;;;;5036331;28;8789;-68
2022/04/13 04:04:51;;;;;;;;;88.20;86.80;29.30;99.90;;;;;;5038938;28;8875;-69
2022/04/13 04:07:18;;;;;;;;;92.00;86.20;29.50;99.90;;;;;;5039266;28;8744;-68
2022/04/13 04:09:44;;;;;;;;;99.80;92.60;29.50;99.90;;;;;;5056377;28;8801;-69
2022/04/13 04:12:11;;;;;;;;;93.00;89.20;29.60;99.90;;;;;;5056630;28;8808;-69
2022/04/13 04:14:38;;;;;;;;;102.20;93.40;29.70;99.90;;;;;;5056072;28;8770;-68
2022/04/13 04:17:05;;;;;;;;;97.60;93.80;29.60;99.90;;;;;;5038632;28;8869;-69
2022/04/13 04:19:32;;;;;;;;;98.00;90.80;29.50;99.90;;;;;;5056308;28;8751;-68
2022/04/13 04:21:59;;;;;;;;;95.60;86.00;29.40;99.90;;;;;;5037171;28;8818;-69
2022/04/13 04:24:26;;;;;;;;;100.40;92.40;29.70;99.90;;;;;;5036106;28;8741;-68
2022/04/13 04:26:53;;;;;;;;;97.20;89.40;29.70;99.90;;;;;;5019223;28;9155;-69
2022/04/13 04:29:20;;;;;;;;;101.20;93.60;29.90;99.90;;;;;;5036322;28;8758;-68
2022/04/13 04:31:49;;;;;;;;;96.40;89.60;30.10;99.90;;;;;;5018654;28;8743;-69
2022/04/13 04:34:17;;;;;;;;;101.60;93.80;30.00;99.90;;;;;;5052218;28;8719;-69
2022/04/13 04:36:44;;;;;;;;;105.00;94.20;30.00;99.90;;;;;;5054463;28;9377;-68
2022/04/13 04:39:11;;;;;;;;;100.60;93.60;29.90;99.90;;;;;;5038843;28;8725;-69
2022/04/13 04:41:40;;;;;;;;;91.40;87.60;30.10;99.90;;;;;;5055975;28;8756;-69
2022/04/13 04:44:08;;;;;;;;;92.20;87.40;30.10;99.90;;;;;;5040980;28;8776;-68
2022/04/13 04:46:35;;;;;;;;;97.00;87.60;30.30;99.90;;;;;;5055553;28;8763;-68
2022/04/13 04:49:03;;;;;;;;;95.60;90.40;30.30;99.90;;;;;;5056561;28;8782;-69
2022/04/13 04:51:33;;;;;;;;;94.80;89.00;30.20;99.90;;;;;;5054962;28;8747;-68
2022/04/13 04:54:00;;;;;;;;;88.40;82.40;30.20;99.90;;;;;;5036003;28;8795;-69
2022/04/13 04:56:27;;;;;;;;;100.20;90.40;30.50;99.90;;;;;;5036158;28;8785;-68
2022/04/13 04:58:54;;;;;;;;;92.40;82.40;30.60;99.90;;;;;;5036235;28;8838;-69
2022/04/13 05:01:20;;;;;;;;;88.60;85.60;30.60;99.90;;;;;;5036263;28;8737;-67
2022/04/13 05:03:50;;;;;;;;;95.00;89.80;30.70;99.90;;;;;;5035910;28;8729;-69
2022/04/13 05:06:21;;;;;;;;;90.40;84.60;30.70;99.90;;;;;;5050301;28;8727;-68
2022/04/13 05:08:49;;;;;;;;;97.60;86.60;30.90;99.90;;;;;;5055482;28;8716;-68
2022/04/13 05:11:16;;;;;;;;;88.00;79.00;31.00;99.90;;;;;;5056127;28;8727;-68
2022/04/13 05:13:45;;;;;;;;;90.80;83.60;31.10;99.90;;;;;;5055650;28;8727;-68
2022/04/13 05:16:15;;;;;;;;;95.20;85.00;31.10;99.90;;;;;;5058049;28;8723;-68
2022/04/13 05:18:43;;;;;;;;;91.60;84.60;31.10;99.90;;;;;;5059024;28;8781;-69
2022/04/13 05:21:09;;;;;;;;;88.20;82.00;30.90;99.90;;;;;;5045806;28;8741;-68
2022/04/13 05:23:37;;;;;;;;;99.40;87.80;31.00;99.90;;;;;;5039171;28;8729;-68
2022/04/13 05:26:04;;;;;;;;;94.00;85.60;31.00;99.90;;;;;;5039362;28;9148;-68
2022/04/13 05:28:31;;;;;;;;;91.80;86.20;31.10;99.90;;;;;;5038913;28;8718;-69
2022/04/13 05:30:58;;;;;;;;;92.60;87.40;31.20;99.90;;;;;;5022101;28;9556;-68
2022/04/13 05:33:24;;;;;;;;;92.80;83.00;30.90;99.90;;;;;;5037433;28;8757;-68
2022/04/13 05:35:51;;;;;;;;;87.80;80.80;30.90;99.90;;;;;;5049841;28;8770;-68
2022/04/13 05:38:18;;;;;;;;;90.60;87.00;31.10;99.90;;;;;;5058513;28;9560;-67
2022/04/13 05:40:45;;;;;;;;;96.20;86.80;31.10;99.90;;;;;;5058431;28;8815;-68
2022/04/13 05:43:12;;;;;;;;;81.60;74.20;31.10;99.90;;;;;;5059719;28;8732;-68
2022/04/13 05:45:38;;;;;;;;;96.00;80.40;31.10;99.90;;;;;;5058176;28;8778;-68
2022/04/13 05:48:05;;;;;;;;;79.40;73.40;31.70;99.90;;;;;;5041526;28;8805;-69
2022/04/13 05:50:32;;;;;;;;;80.60;74.80;31.60;99.90;;;;;;5050068;28;8753;-68
2022/04/13 05:52:58;;;;;;;;;86.00;80.80;31.40;99.90;;;;;;5038823;28;9976;-69
2022/04/13 05:55:25;;;;;;;;;80.40;73.80;31.60;99.90;;;;;;5020736;28;8789;-68
2022/04/13 05:57:52;;;;;;;;;78.00;76.00;31.50;99.60;;;;;;5039031;28;8741;-69
2022/04/13 06:00:19;;;;;;;;;73.40;63.00;31.70;98.80;;;;;;5038514;28;8800;-67
2022/04/13 06:02:45;;;;;;;;;87.80;83.80;31.70;98.70;;;;;;5038918;28;8769;-69
2022/04/13 06:05:12;;;;;;;;;82.40;79.20;31.70;98.40;;;;;;5043877;28;8769;-69
2022/04/13 06:07:40;;;;;;;;;81.20;76.00;31.70;98.70;;;;;;5058330;28;8759;-69
2022/04/13 06:10:07;;;;;;;;;78.80;69.40;31.50;98.30;;;;;;5058709;28;8835;-69
2022/04/13 06:12:34;;;;;;;;;80.20;73.60;32.00;97.40;;;;;;5058367;28;8758;-69
2022/04/13 06:15:04;;;;;;;;;75.80;65.60;32.20;98.20;;;;;;5058602;28;8778;-69
2022/04/13 06:17:31;;;;;;;;;75.80;68.20;32.30;96.20;;;;;;5057980;28;8755;-68
2022/04/13 06:19:58;;;;;;;;;74.00;63.20;32.20;96.90;;;;;;5054670;28;8777;-69
2022/04/13 06:22:24;;;;;;;;;75.40;65.80;32.20;94.60;;;;;;5020268;28;8791;-63
2022/04/13 06:24:54;;;;;;;;;74.40;61.20;32.20;93.80;;;;;;5038561;28;9442;-69
2022/04/13 06:27:20;;;;;;;;;67.40;54.40;32.00;92.80;;;;;;5037181;28;8836;-69
2022/04/13 06:29:47;;;;;;;;;77.60;64.00;32.30;92.60;;;;;;5038192;28;8791;-69
2022/04/13 06:32:14;;;;;;;;;73.20;61.20;32.40;92.60;;;;;;5020638;28;9033;-68
2022/04/13 06:34:41;;;;;;;;;70.40;55.40;32.50;91.90;;;;;;5038707;28;8759;-69
2022/04/13 06:37:08;;;;;;;;;71.80;57.20;32.40;90.80;;;;;;5058487;28;8747;-69
2022/04/13 06:39:35;;;;;;;;;75.20;58.80;32.30;90.60;;;;;;5057569;28;8750;-69
2022/04/13 06:42:01;;;;;;;;;70.20;58.40;32.60;90.70;;;;;;5057748;28;8758;-68
2022/04/13 06:44:28;;;;;;;;;71.60;58.00;32.20;90.70;;;;;;5039629;28;8862;-68
2022/04/13 06:46:55;;;;;;;;;70.20;53.40;32.20;91.60;;;;;;5040253;28;8743;-69
2022/04/13 06:49:22;;;;;;;;;67.40;54.20;32.40;90.80;;;;;;5023933;28;8712;-68
2022/04/13 06:51:48;;;;;;;;;71.40;56.00;32.20;92.80;;;;;;5054147;28;8754;-68
2022/04/13 06:54:15;;;;;;;;;65.60;53.20;32.00;91.50;;;;;;5037544;28;8733;-69
2022/04/13 06:56:42;;;;;;;;;65.60;53.80;32.00;91.60;;;;;;5020134;28;8757;-68
2022/04/13 06:59:08;;;;;;;;;71.60;55.20;32.00;91.20;;;;;;5037666;28;8870;-69
2022/04/13 07:01:35;;;;;;;;;67.20;54.60;32.40;91.30;;;;;;5037119;28;8741;-68
2022/04/13 07:04:02;;;;;;;;;71.20;56.00;32.30;91.00;;;;;;5038203;28;8755;-69
2022/04/13 07:06:29;;;;;;;;;68.80;55.00;32.50;88.50;;;;;;5018589;28;8758;-68
2022/04/13 07:08:55;;;;;;;;;69.20;57.00;32.50;89.30;;;;;;5039088;28;9368;-68
2022/04/13 07:11:22;;;;;;;;;66.80;52.00;32.40;89.90;;;;;;5057130;28;8711;-67
2022/04/13 07:13:48;;;;;;;;;71.00;54.60;32.70;91.20;;;;;;5057025;28;8731;-69
2022/04/13 07:16:15;;;;;;;;;69.00;53.80;32.40;87.40;;;;;;5057816;28;8753;-69
2022/04/13 07:18:42;;;;;;;;;65.00;51.80;32.40;90.80;;;;;;5039299;28;8754;-68
2022/04/13 07:21:09;;;;;;;;;70.40;53.20;32.60;88.50;;;;;;5044110;28;8701;-69
2022/04/13 07:23:35;;;;;;;;;65.60;51.40;32.40;87.20;;;;;;5037024;28;8769;-68
2022/04/13 07:26:02;;;;;;;;;69.00;57.60;32.50;85.30;;;;;;5036954;28;8772;-68
2022/04/13 07:28:29;;;;;;;;;65.40;52.20;32.40;87.80;;;;;;5037015;28;8967;-68
2022/04/13 07:30:55;;;;;;;;;68.20;53.60;32.40;87.80;;;;;;5052919;28;8785;-68
2022/04/13 07:33:22;;;;;;;;;67.80;54.60;32.50;88.90;;;;;;5036753;28;8862;-68
2022/04/13 07:35:48;;;;;;;;;68.80;52.60;32.70;86.60;;;;;;5047074;28;9113;-68
2022/04/13 07:38:15;;;;;;;;;67.20;52.80;33.00;88.40;;;;;;5039407;28;8824;-69
2022/04/13 07:40:42;;;;;;;;;69.00;53.00;33.30;87.70;;;;;;5071441;28;8797;-68
2022/04/13 07:43:09;;;;;;;;;64.80;51.60;32.80;88.20;;;;;;5057272;28;8762;-69
2022/04/13 07:45:36;;;;;;;;;65.40;51.60;32.80;86.80;;;;;;5038527;28;8763;-69
2022/04/13 07:48:03;;;;;;;;;66.40;51.80;32.90;86.00;;;;;;5039335;28;8754;-69
2022/04/13 07:50:29;;;;;;;;;64.40;52.00;32.80;84.70;;;;;;5048408;28;9469;-68
2022/04/13 07:52:57;;;;;;;;;66.80;52.00;32.90;84.00;;;;;;5036685;28;8749;-69
2022/04/13 07:55:24;;;;;;;;;62.40;49.20;33.00;84.00;;;;;;5019436;28;8807;-68
2022/04/13 07:57:50;;;;;;;;;61.60;50.00;32.70;86.00;;;;;;5019139;28;9417;-69
2022/04/13 08:00:17;;;;;;;;;67.80;52.40;32.70;89.70;;;;;;5036178;28;8777;-69
2022/04/13 08:02:44;;;;;;;;;67.60;54.80;33.10;86.50;;;;;;5051724;28;8757;-69
2022/04/13 08:05:12;;;;;;;;;62.80;50.20;32.90;85.30;;;;;;5041458;28;8759;-69
2022/04/13 08:07:39;;;;;;;;;67.60;52.40;33.10;85.30;;;;;;5022333;28;8744;-69
2022/04/13 08:10:07;;;;;;;;;62.00;49.40;32.70;85.10;;;;;;5057171;28;8744;-69
2022/04/13 08:12:34;;;;;;;;;65.60;53.00;32.80;86.80;;;;;;5039020;28;8747;-69
2022/04/13 08:15:02;;;;;;;;;64.20;51.60;33.10;85.30;;;;;;5056528;28;8763;-69
2022/04/13 08:17:29;;;;;;;;;62.40;50.40;32.90;85.50;;;;;;5038668;28;8743;-69
2022/04/13 08:19:55;;;;;;;;;66.60;51.80;32.80;87.10;;;;;;5035542;28;8772;-69
2022/04/13 08:22:28;;;;;;;;;68.40;55.00;32.80;84.50;;;;;;5036681;28;8863;-68
2022/04/13 08:24:55;;;;;;;;;67.00;55.00;32.90;83.80;;;;;;5035545;28;8892;-69
2022/04/13 08:27:22;;;;;;;;;66.40;51.60;32.90;83.70;;;;;;5036028;28;8730;-68
2022/04/13 08:29:48;;;;;;;;;65.20;51.80;33.00;84.20;;;;;;5036286;28;9401;-69
2022/04/13 08:32:18;;;;;;;;;63.00;48.20;33.00;85.70;;;;;;5036383;28;8757;-69
2022/04/13 08:34:46;;;;;;;;;62.80;50.00;33.00;84.10;;;;;;5037898;28;9430;-68
2022/04/13 08:37:13;;;;;;;;;69.00;55.00;33.00;83.20;;;;;;5056835;28;8727;-69
2022/04/13 08:39:40;;;;;;;;;62.00;48.20;33.10;87.20;;;;;;5056002;28;8731;-69
2022/04/13 08:42:31;;;;;;;;;65.40;52.40;33.00;85.90;;;;;;5056315;28;8740;-69
2022/04/13 08:45:04;;;;;;;;;58.20;46.60;32.90;89.50;;;;;;5040368;28;8782;-69
2022/04/13 08:47:31;;;;;;;;;65.60;52.60;32.80;87.60;;;;;;5038816;28;8747;-70
2022/04/13 08:49:58;;;;;;;;;67.80;52.80;32.90;86.00;;;;;;5035622;28;8805;-69
2022/04/13 08:52:30;;;;;;;;;61.00;48.60;33.20;85.60;;;;;;5022439;28;8760;-69
2022/04/13 08:55:11;;;;;;;;;63.60;50.00;33.80;82.60;;;;;;5040265;28;8741;-69
2022/04/13 08:57:39;;;;;;;;;72.40;57.40;33.80;82.90;;;;;;5039563;28;8781;-69
2022/04/13 09:00:13;;;;;;;;;67.20;52.00;33.70;82.90;;;;;;5039714;28;8780;-69
2022/04/13 09:02:49;;;;;;;;;68.40;53.00;34.00;83.40;;;;;;5039354;28;8765;-69
2022/04/13 09:05:23;;;;;;;;;66.80;55.00;33.50;84.50;;;;;;5045619;28;8766;-69
2022/04/13 09:07:53;;;;;;;;;66.60;53.20;33.70;85.30;;;;;;5059669;28;8758;-69
2022/04/13 09:10:20;;;;;;;;;63.40;48.00;33.80;81.40;;;;;;5059858;28;8743;-68
2022/04/13 09:12:48;;;;;;;;;66.80;53.00;33.50;83.40;;;;;;5025342;28;8754;-69
2022/04/13 09:15:15;;;;;;;;;69.00;54.20;33.80;85.00;;;;;;5059641;28;8766;-69
2022/04/13 09:17:42;;;;;;;;;65.00;51.20;33.50;86.20;;;;;;5041275;28;8778;-69
2022/04/13 09:20:09;;;;;;;;;67.00;53.00;33.70;82.10;;;;;;5059987;28;8753;-69
2022/04/13 09:22:36;;;;;;;;;67.20;58.00;33.70;82.60;;;;;;5021901;28;8856;-69
2022/04/13 09:25:03;;;;;;;;;66.40;52.60;33.60;85.60;;;;;;5038920;28;8717;-69
2022/04/13 09:27:30;;;;;;;;;71.60;57.80;33.50;86.10;;;;;;5021471;28;9469;-69
2022/04/13 09:29:57;;;;;;;;;68.20;54.20;33.80;85.70;;;;;;5021740;28;8733;-69
2022/04/13 09:32:23;;;;;;;;;67.80;53.80;33.50;86.10;;;;;;5021712;28;8757;-69
2022/04/13 09:34:51;;;;;;;;;68.00;52.80;33.60;84.80;;;;;;5041122;28;9394;-70
2022/04/13 09:37:19;;;;;;;;;65.40;51.40;33.80;82.00;;;;;;5059414;28;8743;-68
2022/04/13 09:39:46;;;;;;;;;66.20;51.80;33.90;83.60;;;;;;5059037;28;8773;-69
2022/04/13 09:42:13;;;;;;;;;68.40;53.80;33.80;80.80;;;;;;5041529;28;8727;-69
2022/04/13 09:44:43;;;;;;;;;68.20;54.80;33.60;83.90;;;;;;5058943;28;8999;-69
2022/04/13 09:47:10;;;;;;;;;62.60;49.40;33.70;81.40;;;;;;5041804;28;8778;-69
2022/04/13 09:49:47;;;;;;;;;67.80;50.20;33.80;82.20;;;;;;5058824;28;9447;-69
2022/04/13 09:52:15;;;;;;;;;65.60;51.20;33.90;82.50;;;;;;5022295;28;8733;-69
2022/04/13 09:54:48;;;;;;;;;73.00;57.40;33.70;81.60;;;;;;5037753;28;8880;-69
2022/04/13 09:57:22;;;;;;;;;67.20;55.40;33.60;82.60;;;;;;5022035;28;8831;-69
2022/04/13 10:00:00;;;;;;;;;62.40;48.80;33.50;83.30;;;;;;5021124;28;8773;-69
2022/04/13 10:02:37;;;;;;;;;67.00;52.60;33.60;82.70;;;;;;5037252;28;8792;-69
2022/04/13 10:05:05;;;;;;;;;68.80;52.40;33.40;85.20;;;;;;5024736;28;8751;-70
2022/04/13 10:07:31;;;;;;;;;61.60;49.20;33.40;83.20;;;;;;5041079;28;8771;-69
2022/04/13 10:09:58;;;;;;;;;64.80;51.40;33.60;84.30;;;;;;5074855;28;8877;-69
2022/04/13 10:12:25;;;;;;;;;67.40;54.60;33.60;85.60;;;;;;5058449;28;8743;-69
2022/04/13 10:14:52;;;;;;;;;69.80;54.60;33.60;85.40;;;;;;5074379;28;8754;-69
2022/04/13 10:17:20;;;;;;;;;65.00;51.40;33.50;87.00;;;;;;5058081;28;8751;-68
2022/04/13 10:19:54;;;;;;;;;68.80;54.20;33.60;84.90;;;;;;5056919;28;8742;-69
2022/04/13 10:22:21;;;;;;;;;64.40;52.20;33.60;81.90;;;;;;5038486;28;8785;-68
2022/04/13 10:24:47;;;;;;;;;62.00;50.00;33.60;81.80;;;;;;5038231;28;8761;-69
2022/04/13 10:27:19;;;;;;;;;63.00;51.20;33.60;81.90;;;;;;5022271;28;8761;-69
2022/04/13 10:29:49;;;;;;;;;67.60;52.60;33.50;83.00;;;;;;5005859;28;9517;-69
2022/04/13 10:32:22;;;;;;;;;64.40;50.60;33.40;84.10;;;;;;5037221;28;8788;-69
2022/04/13 10:34:55;;;;;;;;;66.20;52.20;33.30;84.30;;;;;;5040665;28;9098;-69
2022/04/13 10:37:23;;;;;;;;;65.80;52.00;33.30;85.30;;;;;;5040730;28;8746;-69
2022/04/13 10:39:52;;;;;;;;;67.00;54.60;33.30;85.90;;;;;;5058080;28;8881;-68
2022/04/13 10:42:19;;;;;;;;;64.60;52.00;33.20;87.50;;;;;;5062833;28;8731;-67
2022/04/13 10:44:46;;;;;;;;;65.80;52.60;33.20;87.30;;;;;;5040458;28;9399;-69
2022/04/13 10:47:17;;;;;;;;;66.00;52.00;33.20;87.20;;;;;;5057856;28;9383;-69
2022/04/13 10:49:54;;;;;;;;;66.20;53.20;33.20;87.50;;;;;;5056027;28;8715;-69
2022/04/13 10:52:34;;;;;;;;;68.60;52.60;33.10;89.80;;;;;;5037811;28;8767;-68
2022/04/13 10:55:04;;;;;;;;;66.40;52.40;33.00;90.80;;;;;;5002829;28;8752;-69
2022/04/13 10:57:42;;;;;;;;;69.60;55.60;32.90;90.90;;;;;;5017585;28;8753;-69
2022/04/13 11:00:12;;;;;;;;;67.40;53.60;32.80;92.30;;;;;;5015075;28;8769;-69
2022/04/13 11:02:43;;;;;;;;;62.20;50.20;32.60;92.70;;;;;;5017905;28;8780;-69
2022/04/13 11:05:09;;;;;;;;;72.00;59.00;32.50;93.20;;;;;;5022305;28;8751;-69
2022/04/13 11:07:37;;;;;;;;;56.60;46.40;32.40;93.30;;;;;;5037245;28;8823;-68
2022/04/13 11:10:04;;;;;;;;;68.80;53.20;32.30;94.30;;;;;;5037910;28;8824;-69
2022/04/13 11:12:31;;;;;;;;;70.60;56.60;32.30;94.40;;;;;;5019244;28;8827;-68
2022/04/13 11:15:02;;;;;;;;;71.00;59.60;32.30;95.00;;;;;;5052676;28;8758;-69
2022/04/13 11:17:28;;;;;;;;;72.60;61.20;32.30;93.80;;;;;;5036949;28;8770;-68
2022/04/13 11:20:22;;;;;;;;;70.80;60.80;32.30;93.20;;;;;;5034388;28;8764;-69
2022/04/13 11:23:11;;;;;;;;;71.00;56.80;32.30;92.70;;;;;;4997423;28;8744;-68
2022/04/13 11:25:51;;;;;;;;;71.60;60.00;32.40;91.60;;;;;;5008279;28;8799;-69
2022/04/13 11:28:31;;;;;;;;;74.60;59.60;32.30;91.20;;;;;;5017747;28;8761;-69
2022/04/13 11:31:02;;;;;;;;;71.20;62.40;32.30;91.30;;;;;;5016797;28;8859;-69
2022/04/13 11:33:55;;;;;;;;;68.60;56.00;32.30;91.20;;;;;;4999565;28;8765;-68
2022/04/13 11:36:27;;;;;;;;;73.20;62.20;32.30;90.80;;;;;;5046946;28;8759;-68
2022/04/13 11:38:53;;;;;;;;;72.60;58.00;32.30;90.80;;;;;;5018470;28;9434;-69
2022/04/13 11:41:21;;;;;;;;;72.00;59.80;32.30;91.00;;;;;;5036696;28;8771;-68
2022/04/13 11:43:48;;;;;;;;;74.60;60.20;32.20;90.90;;;;;;5036680;28;8769;-69
2022/04/13 11:46:41;;;;;;;;;73.00;62.60;32.20;91.10;;;;;;5052814;28;8893;-69
2022/04/13 11:49:10;;;;;;;;;69.60;59.00;32.10;91.30;;;;;;5036880;28;8789;-69
2022/04/13 11:51:37;;;;;;;;;77.80;66.80;32.10;91.60;;;;;;5001841;28;8912;-69
2022/04/13 11:54:13;;;;;;;;;76.60;65.60;32.00;93.90;;;;;;5017232;28;9506;-69
2022/04/13 11:56:49;;;;;;;;;75.80;63.80;31.90;93.10;;;;;;5016626;28;8885;-69
2022/04/13 11:59:16;;;;;;;;;67.60;57.40;31.80;92.10;;;;;;5017321;28;8755;-69
2022/04/13 12:01:57;;;;;;;;;76.00;65.80;31.90;92.00;;;;;;5035545;28;8811;-69
2022/04/13 12:04:24;;;;;;;;;76.80;65.60;31.90;91.80;;;;;;5037042;28;8777;-68
2022/04/13 12:06:51;;;;;;;;;76.20;63.40;31.90;92.40;;;;;;5055451;28;8799;-69
2022/04/13 12:09:18;;;;;;;;;73.40;59.80;31.80;92.10;;;;;;5056339;28;8755;-69
2022/04/13 12:11:46;;;;;;;;;75.80;69.40;31.80;92.80;;;;;;5038933;28;8766;-69
2022/04/13 12:14:27;;;;;;;;;77.20;69.40;31.70;94.50;;;;;;5056386;28;8796;-69
2022/04/13 12:16:57;;;;;;;;;77.40;67.00;31.50;96.00;;;;;;5056463;28;8860;-69
2022/04/13 12:19:23;;;;;;;;;72.60;62.80;31.40;97.20;;;;;;5056558;28;8719;-69
2022/04/13 12:21:50;;;;;;;;;78.60;69.40;31.40;95.70;;;;;;5037498;28;8764;-69
2022/04/13 12:24:17;;;;;;;;;77.40;70.60;31.50;94.00;;;;;;5036573;28;8757;-69
2022/04/13 12:26:47;;;;;;;;;79.20;70.20;31.50;93.60;;;;;;5039037;28;8800;-68
2022/04/13 12:29:18;;;;;;;;;79.40;69.80;31.50;94.40;;;;;;5040028;28;8767;-69
2022/04/13 12:31:51;;;;;;;;;77.20;70.80;31.50;95.70;;;;;;5040190;28;9482;-69
2022/04/13 12:34:19;;;;;;;;;81.80;71.20;31.50;95.70;;;;;;5022966;28;8737;-69
2022/04/13 12:36:55;;;;;;;;;78.20;68.00;31.50;95.70;;;;;;5057723;28;8913;-69
2022/04/13 12:39:32;;;;;;;;;79.60;72.40;31.40;96.40;;;;;;5059880;28;9073;-68
2022/04/13 12:42:01;;;;;;;;;79.20;68.60;31.30;95.50;;;;;;5060374;28;8770;-69